createdAt,value
2023-04-22T00:00:04.531Z,12.27
2023-04-22T00:01:08.815Z,12.26
2023-04-22T00:03:31.530Z,12.38
2023-04-22T00:04:34.295Z,12.21
2023-04-22T00:05:41.639Z,12.21
2023-04-22T00:06:45.353Z,12.22
2023-04-22T00:07:51.907Z,12.21
2023-04-22T00:08:57.511Z,12.20
2023-04-22T00:09:59.801Z,12.20
2023-04-22T00:11:05.523Z,12.20
2023-04-22T00:12:10.256Z,12.18
2023-04-22T00:13:16.607Z,12.18
2023-04-22T00:14:20.502Z,12.18
2023-04-22T00:15:24.821Z,12.18
2023-04-22T00:16:27.200Z,12.17
2023-04-22T00:17:33.973Z,12.18
2023-04-22T00:18:36.571Z,12.17
2023-04-22T00:19:41.352Z,12.16
2023-04-22T00:20:44.848Z,12.15
2023-04-22T00:21:56.612Z,12.13
2023-04-22T00:22:58.984Z,12.13
2023-04-22T00:24:03.444Z,12.12
2023-04-22T00:25:10.290Z,12.12
2023-04-22T00:26:19.601Z,12.11
2023-04-22T00:27:24.930Z,12.11
2023-04-22T00:28:31.059Z,12.09
2023-04-22T00:29:34.510Z,12.08
2023-04-22T00:30:36.845Z,12.06
2023-04-22T00:31:40.908Z,12.06
2023-04-22T00:32:46.636Z,12.06
2023-04-22T00:33:49.534Z,12.05
2023-04-22T00:34:51.850Z,12.04
2023-04-22T00:35:55.049Z,12.04
2023-04-22T00:37:04.581Z,12.02
2023-04-22T00:38:10.540Z,12.01
2023-04-22T00:39:15.221Z,12.00
2023-04-22T00:40:22.211Z,11.98
2023-04-22T00:41:24.704Z,11.98
2023-04-22T00:42:29.403Z,11.98
2023-04-22T00:43:31.722Z,11.97
2023-04-22T00:44:36.390Z,11.97
2023-04-22T00:45:39.071Z,11.98
2023-04-22T00:46:41.396Z,11.96
2023-04-22T00:47:45.385Z,11.96
2023-04-22T00:48:47.660Z,11.97
2023-04-22T00:49:52.156Z,11.96
2023-04-22T00:50:54.504Z,11.95
2023-04-22T00:51:56.576Z,11.95
2023-04-22T00:52:58.875Z,11.95
2023-04-22T00:54:01.042Z,11.95
2023-04-22T00:55:04.003Z,11.95
2023-04-22T00:56:07.330Z,11.94
2023-04-22T00:57:10.117Z,11.94
2023-04-22T00:58:12.991Z,11.93
2023-04-22T00:59:16.198Z,11.94
2023-04-22T01:00:19.504Z,11.94
2023-04-22T01:01:21.953Z,11.92
2023-04-22T01:02:24.651Z,11.92
2023-04-22T01:03:27.774Z,11.91
2023-04-22T01:04:30.790Z,11.90
2023-04-22T01:05:34.460Z,11.89
2023-04-22T01:06:38.630Z,11.89
2023-04-22T01:07:41.027Z,11.88
2023-04-22T01:08:43.513Z,11.87
2023-04-22T01:09:45.847Z,11.86
2023-04-22T01:10:49.250Z,11.85
2023-04-22T01:11:51.437Z,11.86
2023-04-22T01:12:53.729Z,11.84
2023-04-22T01:13:55.922Z,11.85
2023-04-22T01:14:58.163Z,11.84
2023-04-22T01:16:00.733Z,11.85
2023-04-22T01:17:03.156Z,11.82
2023-04-22T01:18:06.194Z,11.83
2023-04-22T01:19:08.840Z,11.81
2023-04-22T01:20:12.048Z,11.82
2023-04-22T01:21:14.923Z,11.80
2023-04-22T01:22:17.775Z,11.80
2023-04-22T01:23:21.070Z,11.78
2023-04-22T01:24:23.405Z,11.78
2023-04-22T01:25:26.264Z,11.77
2023-04-22T01:26:28.599Z,11.76
2023-04-22T01:27:31.010Z,11.76
2023-04-22T01:28:33.371Z,11.74
2023-04-22T01:29:38.785Z,11.74
2023-04-22T01:30:42.528Z,11.73
2023-04-22T01:31:45.412Z,11.72
2023-04-22T01:32:47.996Z,11.71
2023-04-22T01:33:50.374Z,11.70
2023-04-22T01:34:52.575Z,11.68
2023-04-22T01:35:54.778Z,11.68
2023-04-22T01:36:57.196Z,11.68
2023-04-22T01:37:59.542Z,11.67
2023-04-22T01:39:02.213Z,11.67
2023-04-22T01:40:06.693Z,11.65
2023-04-22T01:41:09.605Z,11.64
2023-04-22T01:42:12.485Z,11.63
2023-04-22T01:43:14.773Z,11.62
2023-04-22T01:44:17.387Z,11.60
2023-04-22T01:45:19.456Z,11.60
2023-04-22T01:46:21.853Z,11.58
2023-04-22T01:47:25.205Z,11.57
2023-04-22T01:48:27.518Z,11.55
2023-04-22T01:49:29.721Z,11.55
2023-04-22T01:50:33.893Z,11.52
2023-04-22T01:51:36.164Z,11.52
2023-04-22T01:52:39.141Z,11.51
2023-04-22T01:53:41.522Z,11.50
2023-04-22T01:54:44.186Z,11.48
2023-04-22T01:55:47.232Z,11.48
2023-04-22T01:56:54.558Z,11.47
2023-04-22T01:57:56.922Z,11.44
2023-04-22T01:58:59.669Z,11.42
2023-04-22T02:00:05.602Z,11.41
2023-04-22T02:01:11.096Z,11.40
2023-04-22T02:02:13.560Z,11.38
2023-04-22T02:03:16.039Z,11.36
2023-04-22T02:04:18.667Z,11.34
2023-04-22T02:05:21.512Z,11.33
2023-04-22T02:06:24.174Z,11.34
2023-04-22T02:07:26.475Z,11.30
2023-04-22T02:08:28.850Z,11.29
2023-04-22T02:09:33.163Z,11.28
2023-04-22T02:10:35.650Z,11.25
2023-04-22T02:11:37.877Z,11.24
2023-04-22T02:12:40.361Z,11.22
2023-04-22T02:13:42.675Z,11.22
2023-04-22T02:14:45.274Z,11.19
2023-04-22T02:15:47.664Z,11.18
2023-04-22T02:16:51.557Z,11.17
2023-04-22T02:17:55.047Z,11.16
2023-04-22T02:18:57.344Z,11.15
2023-04-22T02:19:59.739Z,11.14
2023-04-22T02:21:02.557Z,11.14
2023-04-22T02:22:04.741Z,11.11
2023-04-22T02:23:07.574Z,11.11
2023-04-22T02:24:09.769Z,11.10
2023-04-22T02:25:12.053Z,11.08
2023-04-22T02:26:14.772Z,11.08
2023-04-22T02:27:17.097Z,11.09
2023-04-22T02:28:20.765Z,11.08
2023-04-22T02:29:22.964Z,11.08
2023-04-22T02:30:25.422Z,11.05
2023-04-22T02:31:27.715Z,11.05
2023-04-22T02:32:30.894Z,11.05
2023-04-22T02:33:34.516Z,11.04
2023-04-22T02:34:36.779Z,11.04
2023-04-22T02:35:39.045Z,11.04
2023-04-22T02:36:41.295Z,11.04
2023-04-22T02:37:43.605Z,11.03
2023-04-22T02:38:45.933Z,11.04
2023-04-22T02:39:50.083Z,11.04
2023-04-22T02:40:52.788Z,11.03
2023-04-22T02:41:55.577Z,11.04
2023-04-22T02:42:58.155Z,11.03
2023-04-22T02:44:00.576Z,11.02
2023-04-22T02:45:03.084Z,11.02
2023-04-22T02:46:05.481Z,11.02
2023-04-22T02:47:09.229Z,11.01
2023-04-22T02:48:11.836Z,11.02
2023-04-22T02:49:14.180Z,11.02
2023-04-22T02:50:16.450Z,11.02
2023-04-22T02:51:18.656Z,11.01
2023-04-22T02:52:21.347Z,11.01
2023-04-22T02:53:23.990Z,11.02
2023-04-22T02:54:26.309Z,11.00
2023-04-22T02:55:28.690Z,10.99
2023-04-22T02:56:31.098Z,10.99
2023-04-22T02:57:33.453Z,10.99
2023-04-22T02:58:35.895Z,10.98
2023-04-22T02:59:38.825Z,10.99
2023-04-22T03:00:41.850Z,10.98
2023-04-22T03:01:44.127Z,10.98
2023-04-22T03:02:48.759Z,10.98
2023-04-22T03:03:53.532Z,10.98
2023-04-22T03:04:58.162Z,10.98
2023-04-22T03:06:01.046Z,10.99
2023-04-22T03:07:04.598Z,11.00
2023-04-22T03:08:07.060Z,10.99
2023-04-22T03:09:09.450Z,11.01
2023-04-22T03:10:13.135Z,11.01
2023-04-22T03:11:15.964Z,11.04
2023-04-22T03:12:18.295Z,11.06
2023-04-22T03:13:21.100Z,11.08
2023-04-22T03:14:23.416Z,11.10
2023-04-22T03:15:25.720Z,11.10
2023-04-22T03:16:29.922Z,11.13
2023-04-22T03:17:33.573Z,11.14
2023-04-22T03:18:37.000Z,11.15
2023-04-22T03:19:40.493Z,11.16
2023-04-22T03:20:43.418Z,11.14
2023-04-22T03:21:45.941Z,11.15
2023-04-22T03:22:48.761Z,11.16
2023-04-22T03:23:54.354Z,11.15
2023-04-22T03:24:56.881Z,11.14
2023-04-22T03:25:59.202Z,11.13
2023-04-22T03:27:01.619Z,11.13
2023-04-22T03:28:04.955Z,11.13
2023-04-22T03:29:07.347Z,11.13
2023-04-22T03:30:10.829Z,11.14
2023-04-22T03:31:13.187Z,11.14
2023-04-22T03:32:15.691Z,11.14
2023-04-22T03:33:19.401Z,11.13
2023-04-22T03:34:26.115Z,11.12
2023-04-22T03:35:28.936Z,11.13
2023-04-22T03:36:32.810Z,11.14
2023-04-22T03:37:35.275Z,11.14
2023-04-22T03:38:41.044Z,11.14
2023-04-22T03:39:43.485Z,11.13
2023-04-22T03:40:46.200Z,11.14
2023-04-22T03:41:52.029Z,11.14
2023-04-22T03:42:54.399Z,11.14
2023-04-22T03:43:58.878Z,11.14
2023-04-22T03:45:01.323Z,11.14
2023-04-22T03:46:07.001Z,11.14
2023-04-22T03:47:10.974Z,11.12
2023-04-22T03:48:15.537Z,11.12
2023-04-22T03:49:19.632Z,11.11
2023-04-22T03:50:22.243Z,11.11
2023-04-22T03:51:25.092Z,11.12
2023-04-22T03:52:27.998Z,11.12
2023-04-22T03:53:32.186Z,11.13
2023-04-22T03:54:35.014Z,11.12
2023-04-22T03:55:37.349Z,11.13
2023-04-22T03:56:40.213Z,11.13
2023-04-22T03:57:42.983Z,11.13
2023-04-22T03:58:46.208Z,11.15
2023-04-22T03:59:49.225Z,11.16
2023-04-22T04:00:51.925Z,11.17
2023-04-22T04:01:54.380Z,11.17
2023-04-22T04:02:58.923Z,11.18
2023-04-22T04:04:02.353Z,11.19
2023-04-22T04:05:07.300Z,11.19
2023-04-22T04:06:10.408Z,11.20
2023-04-22T04:07:12.869Z,11.21
2023-04-22T04:08:15.218Z,11.22
2023-04-22T04:09:18.101Z,11.21
2023-04-22T04:10:22.150Z,11.20
2023-04-22T04:11:26.096Z,11.23
2023-04-22T04:12:28.853Z,11.22
2023-04-22T04:13:31.187Z,11.22
2023-04-22T04:14:35.375Z,11.24
2023-04-22T04:15:38.525Z,11.25
2023-04-22T04:16:41.472Z,11.26
2023-04-22T04:17:45.698Z,11.27
2023-04-22T04:18:51.799Z,11.27
2023-04-22T04:19:55.028Z,11.27
2023-04-22T04:20:57.778Z,11.29
2023-04-22T04:22:02.642Z,11.30
2023-04-22T04:23:06.752Z,11.31
2023-04-22T04:24:09.141Z,11.32
2023-04-22T04:25:13.932Z,11.34
2023-04-22T04:27:29.252Z,11.48
2023-04-22T04:28:31.484Z,11.33
2023-04-22T04:29:35.112Z,11.38
2023-04-22T04:30:39.961Z,11.40
2023-04-22T04:31:42.418Z,11.41
2023-04-22T04:32:44.842Z,11.42
2023-04-22T04:33:49.503Z,11.44
2023-04-22T04:34:52.171Z,11.45
2023-04-22T04:35:55.645Z,11.46
2023-04-22T04:37:00.376Z,11.48
2023-04-22T04:38:04.832Z,11.49
2023-04-22T04:39:10.483Z,11.51
2023-04-22T04:40:13.364Z,11.53
2023-04-22T04:41:17.981Z,11.54
2023-04-22T04:42:20.816Z,11.57
2023-04-22T04:43:25.358Z,11.58
2023-04-22T04:44:29.556Z,11.60
2023-04-22T04:45:32.421Z,11.61
2023-04-22T04:46:35.674Z,11.63
2023-04-22T04:47:38.168Z,11.65
2023-04-22T04:48:45.676Z,11.68
2023-04-22T04:49:48.056Z,11.68
2023-04-22T04:50:51.012Z,11.71
2023-04-22T04:51:53.916Z,11.74
2023-04-22T04:52:57.503Z,11.74
2023-04-22T04:54:01.714Z,11.77
2023-04-22T04:55:06.168Z,11.80
2023-04-22T04:56:10.076Z,11.82
2023-04-22T04:57:12.871Z,11.84
2023-04-22T04:58:15.878Z,11.88
2023-04-22T04:59:18.440Z,11.92
2023-04-22T05:00:20.862Z,11.98
2023-04-22T05:01:24.656Z,12.06
2023-04-22T05:02:30.286Z,12.26
2023-04-22T05:03:33.255Z,12.60
2023-04-22T05:04:36.218Z,13.10
2023-04-22T05:05:39.441Z,13.52
2023-04-22T05:06:41.961Z,13.91
2023-04-22T05:07:44.785Z,14.32
2023-04-22T05:08:48.125Z,14.68
2023-04-22T05:09:50.594Z,15.07
2023-04-22T05:10:53.133Z,15.44
2023-04-22T05:11:55.541Z,15.78
2023-04-22T05:12:57.902Z,16.06
2023-04-22T05:14:02.052Z,16.30
2023-04-22T05:15:07.079Z,16.51
2023-04-22T05:16:10.763Z,16.69
2023-04-22T05:17:14.313Z,16.83
2023-04-22T05:18:17.836Z,16.96
2023-04-22T05:19:20.379Z,17.07
2023-04-22T05:20:23.473Z,17.19
2023-04-22T05:21:25.800Z,17.32
2023-04-22T05:22:29.214Z,17.41
2023-04-22T05:23:32.133Z,17.54
2023-04-22T05:24:35.231Z,17.62
2023-04-22T05:25:45.053Z,17.68
2023-04-22T05:26:48.905Z,17.72
2023-04-22T05:27:53.571Z,17.75
2023-04-22T05:28:56.137Z,17.79
2023-04-22T05:29:58.656Z,17.86
2023-04-22T05:31:03.271Z,18.01
2023-04-22T05:32:07.572Z,18.26
2023-04-22T05:33:10.653Z,18.55
2023-04-22T05:34:13.626Z,18.72
2023-04-22T05:35:16.370Z,18.79
2023-04-22T05:36:18.720Z,18.90
2023-04-22T05:37:22.696Z,18.98
2023-04-22T05:38:26.134Z,19.15
2023-04-22T05:39:31.214Z,19.33
2023-04-22T05:40:35.472Z,19.44
2023-04-22T05:41:38.839Z,19.53
2023-04-22T05:42:43.414Z,19.56
2023-04-22T05:43:47.381Z,19.57
2023-04-22T05:44:51.626Z,19.53
2023-04-22T05:45:53.997Z,19.44
2023-04-22T05:46:57.229Z,19.29
2023-04-22T05:48:01.777Z,19.13
2023-04-22T05:49:06.082Z,18.92
2023-04-22T05:50:27.009Z,18.73
2023-04-22T05:51:31.229Z,18.49
2023-04-22T05:52:33.593Z,18.29
2023-04-22T05:53:41.151Z,18.13
2023-04-22T05:54:43.731Z,17.98
2023-04-22T05:55:46.627Z,17.83
2023-04-22T05:56:50.303Z,17.64
2023-04-22T05:57:53.567Z,17.49
2023-04-22T05:58:58.381Z,17.36
2023-04-22T06:00:04.486Z,17.23
2023-04-22T06:01:09.215Z,17.12
2023-04-22T06:02:19.670Z,17.00
2023-04-22T06:03:22.397Z,16.89
2023-04-22T06:04:25.046Z,16.79
2023-04-22T06:05:28.550Z,16.68
2023-04-22T06:06:33.741Z,16.59
2023-04-22T06:07:36.201Z,16.50
2023-04-22T06:08:40.200Z,16.42
2023-04-22T06:09:42.719Z,16.33
2023-04-22T06:10:46.375Z,16.27
2023-04-22T06:11:48.804Z,16.20
2023-04-22T06:12:51.168Z,16.13
2023-04-22T06:13:54.060Z,16.07
2023-04-22T06:14:59.383Z,16.00
2023-04-22T06:16:02.219Z,15.95
2023-04-22T06:17:04.659Z,15.89
2023-04-22T06:18:07.479Z,15.85
2023-04-22T06:19:10.759Z,15.82
2023-04-22T06:20:13.364Z,15.79
2023-04-22T06:21:15.728Z,15.76
2023-04-22T06:22:18.053Z,15.73
2023-04-22T06:23:22.503Z,15.69
2023-04-22T06:24:24.861Z,15.66
2023-04-22T06:25:28.243Z,15.63
2023-04-22T06:26:31.316Z,15.60
2023-04-22T06:27:33.779Z,15.57
2023-04-22T06:28:36.771Z,15.55
2023-04-22T06:29:42.018Z,15.53
2023-04-22T06:30:44.842Z,15.51
2023-04-22T06:31:47.256Z,15.48
2023-04-22T06:32:51.170Z,15.48
2023-04-22T06:33:53.666Z,15.46
2023-04-22T06:34:57.144Z,15.43
2023-04-22T06:36:00.254Z,15.42
2023-04-22T06:37:02.929Z,15.42
2023-04-22T06:38:05.672Z,15.41
2023-04-22T06:39:09.903Z,15.41
2023-04-22T06:40:20.141Z,15.39
2023-04-22T06:41:24.327Z,15.41
2023-04-22T06:42:29.059Z,15.38
2023-04-22T06:44:46.963Z,15.50
2023-04-22T06:47:10.236Z,15.47
2023-04-22T06:48:23.346Z,15.33
2023-04-22T06:49:42.786Z,15.36
2023-04-22T06:51:02.714Z,15.39
2023-04-22T06:52:05.887Z,15.40
2023-04-22T06:53:09.832Z,15.42
2023-04-22T06:54:12.832Z,15.42
2023-04-22T06:55:15.285Z,15.44
2023-04-22T06:56:18.390Z,15.48
2023-04-22T06:57:20.809Z,15.51
2023-04-22T06:58:23.208Z,15.53
2023-04-22T06:59:26.110Z,15.57
2023-04-22T07:00:29.288Z,15.60
2023-04-22T07:01:34.043Z,15.64
2023-04-22T07:02:37.025Z,15.69
2023-04-22T07:03:40.064Z,15.73
2023-04-22T07:04:44.696Z,15.76
2023-04-22T07:05:47.330Z,15.80
2023-04-22T07:06:49.797Z,15.85
2023-04-22T07:07:53.892Z,15.88
2023-04-22T07:08:57.123Z,15.92
2023-04-22T07:10:00.063Z,15.96
2023-04-22T07:11:05.784Z,15.99
2023-04-22T07:12:10.405Z,16.03
2023-04-22T07:13:13.838Z,16.06
2023-04-22T07:14:16.769Z,16.08
2023-04-22T07:15:19.180Z,16.12
2023-04-22T07:16:21.720Z,16.14
2023-04-22T07:17:24.224Z,16.18
2023-04-22T07:18:26.735Z,16.22
2023-04-22T07:19:29.107Z,16.24
2023-04-22T07:20:32.509Z,16.27
2023-04-22T07:21:34.873Z,16.29
2023-04-22T07:22:37.324Z,16.32
2023-04-22T07:23:39.688Z,16.36
2023-04-22T07:24:42.959Z,16.38
2023-04-22T07:25:45.382Z,16.42
2023-04-22T07:26:47.791Z,16.45
2023-04-22T07:27:50.201Z,16.49
2023-04-22T07:28:52.668Z,16.52
2023-04-22T07:29:54.982Z,16.55
2023-04-22T07:30:57.472Z,16.60
2023-04-22T07:32:00.840Z,16.63
2023-04-22T07:33:04.428Z,16.65
2023-04-22T07:34:07.524Z,16.68
2023-04-22T07:35:09.866Z,16.70
2023-04-22T07:36:12.798Z,16.75
2023-04-22T07:37:15.204Z,16.78
2023-04-22T07:38:18.254Z,16.81
2023-04-22T07:39:22.057Z,16.83
2023-04-22T07:40:24.509Z,16.86
2023-04-22T07:41:27.496Z,16.89
2023-04-22T07:42:29.984Z,16.92
2023-04-22T07:43:32.224Z,16.95
2023-04-22T07:44:34.615Z,16.97
2023-04-22T07:45:37.372Z,17.01
2023-04-22T07:46:39.974Z,17.03
2023-04-22T07:47:42.344Z,17.05
2023-04-22T07:48:45.048Z,17.08
2023-04-22T07:49:47.393Z,17.10
2023-04-22T07:50:49.845Z,17.13
2023-04-22T07:51:52.788Z,17.14
2023-04-22T07:52:55.746Z,17.18
2023-04-22T08:02:19.032Z,17.55
2023-04-22T08:03:22.888Z,17.60
2023-04-22T08:04:25.933Z,17.64
2023-04-22T08:05:28.761Z,17.69
2023-04-22T08:06:31.794Z,17.74
2023-04-22T08:07:34.245Z,17.78
2023-04-22T08:08:36.708Z,17.84
2023-04-22T08:09:39.212Z,17.87
2023-04-22T08:10:42.229Z,17.92
2023-04-22T08:11:44.570Z,17.95
2023-04-22T08:12:46.914Z,18.00
2023-04-22T08:13:49.261Z,18.04
2023-04-22T08:14:51.610Z,18.08
2023-04-22T08:15:53.989Z,18.13
2023-04-22T08:16:56.542Z,18.18
2023-04-22T08:17:59.955Z,18.23
2023-04-22T08:19:02.413Z,18.27
2023-04-22T08:22:11.640Z,18.38
2023-04-22T08:25:18.680Z,18.52
2023-04-22T08:33:40.139Z,18.85
2023-04-22T08:39:53.307Z,19.03
2023-04-22T08:45:06.318Z,19.16
2023-04-22T08:51:32.403Z,19.32
2023-04-22T08:55:45.393Z,19.46
2023-04-22T08:56:50.973Z,19.51
2023-04-22T08:57:53.832Z,19.53
2023-04-22T08:58:56.819Z,19.57
2023-04-22T08:59:59.660Z,19.60
2023-04-22T09:01:02.776Z,19.63
2023-04-22T09:02:05.420Z,19.65
2023-04-22T09:03:08.922Z,19.69
2023-04-22T09:04:15.812Z,19.70
2023-04-22T09:05:20.668Z,19.75
2023-04-22T09:06:23.809Z,19.80
2023-04-22T09:09:17.736Z,19.85
2023-04-22T09:10:20.908Z,19.91
2023-04-22T09:11:24.135Z,19.93
2023-04-22T09:12:26.801Z,19.95
2023-04-22T09:13:32.912Z,19.97
2023-04-22T09:14:37.113Z,20.02
2023-04-22T09:15:40.049Z,20.03
2023-04-22T09:16:47.796Z,20.06
2023-04-22T09:19:12.076Z,20.25
2023-04-22T09:20:18.358Z,20.16
2023-04-22T09:22:47.911Z,20.33
2023-04-22T09:23:56.745Z,20.22
2023-04-22T09:24:59.652Z,20.27
2023-04-22T09:27:26.876Z,20.46
2023-04-22T09:29:49.026Z,20.49
2023-04-22T09:30:54.713Z,20.37
2023-04-22T09:32:10.983Z,20.41
2023-04-22T09:33:14.764Z,20.45
2023-04-22T09:34:17.218Z,20.45
2023-04-22T09:35:33.600Z,20.46
2023-04-22T09:36:35.828Z,20.44
2023-04-22T09:37:49.233Z,20.42
2023-04-22T09:41:38.865Z,20.28
2023-04-22T09:42:54.729Z,20.25
2023-04-22T09:43:58.593Z,20.20
2023-04-22T09:45:02.325Z,20.17
2023-04-22T09:46:08.983Z,20.08
2023-04-22T09:48:21.462Z,20.08
2023-04-22T09:49:26.448Z,19.86
2023-04-22T09:50:29.519Z,19.82
2023-04-22T09:51:32.375Z,19.77
2023-04-22T09:52:34.773Z,19.72
2023-04-22T09:53:37.366Z,19.66
2023-04-22T09:54:40.299Z,19.62
2023-04-22T09:55:48.903Z,19.56
2023-04-22T09:56:53.164Z,19.51
2023-04-22T09:57:57.007Z,19.46
2023-04-22T09:59:01.728Z,19.41
2023-04-22T10:00:07.681Z,19.36
2023-04-22T10:01:10.144Z,19.32
2023-04-22T10:02:18.357Z,19.28
2023-04-22T10:03:25.265Z,19.25
2023-04-22T10:04:30.987Z,19.20
2023-04-22T10:05:37.212Z,19.17
2023-04-22T10:06:42.715Z,19.15
2023-04-22T10:07:47.672Z,19.15
2023-04-22T10:08:53.037Z,19.14
2023-04-22T10:11:17.765Z,19.26
2023-04-22T10:12:29.397Z,19.14
2023-04-22T10:13:29.464Z,19.15
2023-04-22T10:14:31.729Z,19.17
2023-04-22T10:15:43.672Z,19.18
2023-04-22T10:16:50.006Z,19.17
2023-04-22T10:18:02.458Z,19.16
2023-04-22T10:19:11.897Z,19.15
2023-04-22T10:20:17.406Z,19.16
2023-04-22T10:21:26.310Z,19.16
2023-04-22T10:22:32.669Z,19.14
2023-04-22T10:24:52.939Z,19.25
2023-04-22T10:25:56.587Z,19.09
2023-04-22T10:28:16.509Z,19.21
2023-04-22T10:29:21.342Z,19.06
2023-04-22T10:30:29.022Z,19.07
2023-04-22T10:31:31.369Z,19.08
2023-04-22T10:32:37.263Z,19.09
2023-04-22T10:33:40.860Z,19.10
2023-04-22T10:34:44.718Z,19.09
2023-04-22T10:36:07.797Z,19.09
2023-04-22T10:37:11.835Z,19.08
2023-04-22T10:38:17.079Z,19.07
2023-04-22T10:39:22.578Z,19.06
2023-04-22T10:40:25.041Z,19.04
2023-04-22T10:41:31.992Z,19.04
2023-04-22T10:42:35.178Z,19.02
2023-04-22T10:43:41.756Z,19.02
2023-04-22T10:44:53.183Z,19.01
2023-04-22T10:46:00.051Z,18.99
2023-04-22T10:47:02.405Z,18.99
2023-04-22T10:48:05.153Z,18.98
2023-04-22T10:50:41.706Z,19.08
2023-04-22T10:51:49.847Z,18.95
2023-04-22T10:53:00.072Z,18.95
2023-04-22T10:54:02.439Z,18.95
2023-04-22T10:55:08.111Z,18.95
2023-04-22T10:56:19.573Z,18.94
2023-04-22T10:57:23.190Z,18.95
2023-04-22T10:58:29.320Z,18.94
2023-04-22T10:59:33.544Z,18.93
2023-04-22T11:00:52.268Z,18.92
2023-04-22T11:01:53.266Z,18.92
2023-04-22T11:03:11.830Z,18.92
2023-04-22T11:04:23.795Z,18.91
2023-04-22T11:05:26.819Z,18.91
2023-04-22T11:06:35.022Z,18.90
2023-04-22T11:07:41.110Z,18.90
2023-04-22T11:08:49.486Z,18.88
2023-04-22T11:10:04.273Z,18.88
2023-04-22T11:11:10.328Z,18.88
2023-04-22T11:12:36.356Z,18.86
2023-04-22T11:13:41.535Z,18.85
2023-04-22T11:14:46.610Z,18.86
2023-04-22T11:15:52.168Z,18.85
2023-04-22T11:16:55.285Z,18.84
2023-04-22T11:17:58.120Z,18.84
2023-04-22T11:19:03.666Z,18.81
2023-04-22T11:20:11.899Z,18.80
2023-04-22T11:21:20.730Z,18.80
2023-04-22T11:22:28.880Z,18.79
2023-04-22T11:23:32.946Z,18.80
2023-04-22T11:24:38.908Z,18.80
2023-04-22T11:25:41.390Z,18.80
2023-04-22T11:26:49.230Z,18.80
2023-04-22T11:28:00.460Z,18.79
2023-04-22T11:29:02.984Z,18.79
2023-04-22T11:30:15.270Z,18.79
2023-04-22T11:31:19.742Z,18.79
2023-04-22T11:32:23.600Z,18.79
2023-04-22T11:33:28.140Z,18.78
2023-04-22T11:34:33.909Z,18.77
2023-04-22T11:35:38.632Z,18.76
2023-04-22T11:38:05.959Z,18.87
2023-04-22T11:39:08.677Z,18.71
2023-04-22T11:41:24.253Z,18.71
2023-04-22T11:42:27.196Z,18.70
2023-04-22T11:43:29.591Z,18.69
2023-04-22T11:44:31.919Z,18.68
2023-04-22T11:45:41.829Z,18.67
2023-04-22T11:46:47.742Z,18.65
2023-04-22T11:47:52.812Z,18.68
2023-04-22T11:49:15.197Z,18.67
2023-04-22T11:50:24.448Z,18.68
2023-04-22T11:51:28.634Z,18.67
2023-04-22T11:52:54.033Z,18.65
2023-04-22T11:53:56.967Z,18.63
2023-04-22T11:55:01.192Z,18.65
2023-04-22T11:56:05.561Z,18.63
2023-04-22T11:57:08.736Z,18.61
2023-04-22T11:58:14.820Z,18.59
2023-04-22T11:59:19.014Z,18.58
2023-04-22T12:00:23.309Z,18.57
2023-04-22T12:01:30.677Z,18.54
2023-04-22T12:02:33.176Z,18.53
2023-04-22T12:03:43.207Z,18.50
2023-04-22T12:04:47.984Z,18.47
2023-04-22T12:06:00.736Z,18.46
2023-04-22T12:07:03.632Z,18.47
2023-04-22T12:09:19.189Z,18.55
2023-04-22T12:10:23.114Z,18.41
2023-04-22T12:11:32.372Z,18.38
2023-04-22T12:12:39.777Z,18.38
2023-04-22T12:13:45.356Z,18.36
2023-04-22T12:14:53.319Z,18.35
2023-04-22T12:17:10.428Z,18.44
2023-04-22T12:18:16.426Z,18.30
2023-04-22T12:19:22.388Z,18.30
2023-04-22T12:21:43.481Z,18.42
2023-04-22T12:22:45.854Z,18.27
2023-04-22T12:23:52.510Z,18.28
2023-04-22T12:25:01.001Z,18.29
2023-04-22T12:26:04.337Z,18.29
2023-04-22T12:27:07.281Z,18.29
2023-04-22T12:28:10.356Z,18.28
2023-04-22T12:29:13.961Z,18.28
2023-04-22T12:30:19.236Z,18.28
2023-04-22T12:31:21.806Z,18.27
2023-04-22T12:32:29.297Z,18.29
2023-04-22T12:33:34.104Z,18.28
2023-04-22T12:34:38.343Z,18.28
2023-04-22T12:35:40.739Z,18.27
2023-04-22T12:36:43.211Z,18.27
2023-04-22T12:37:52.581Z,18.27
2023-04-22T12:38:55.213Z,18.25
2023-04-22T12:39:58.110Z,18.24
2023-04-22T12:41:04.172Z,18.23
2023-04-22T12:42:08.904Z,18.22
2023-04-22T12:43:15.832Z,18.20
2023-04-22T12:44:18.853Z,18.19
2023-04-22T12:45:23.038Z,18.17
2023-04-22T12:46:25.542Z,18.16
2023-04-22T12:47:28.007Z,18.15
2023-04-22T12:48:31.044Z,18.15
2023-04-22T12:49:33.467Z,18.15
2023-04-22T12:50:36.799Z,18.13
2023-04-22T12:51:42.710Z,18.14
2023-04-22T12:52:44.974Z,18.13
2023-04-22T12:53:47.850Z,18.12
2023-04-22T12:54:50.612Z,18.12
2023-04-22T12:55:53.097Z,18.11
2023-04-22T12:56:55.390Z,18.10
2023-04-22T12:58:03.632Z,18.11
2023-04-22T12:59:06.017Z,18.11
2023-04-22T13:00:09.852Z,18.12
2023-04-22T13:01:12.883Z,18.12
2023-04-22T13:02:15.584Z,18.14
2023-04-22T13:03:18.500Z,18.15
2023-04-22T13:04:21.453Z,18.16
2023-04-22T13:05:25.516Z,18.17
2023-04-22T13:06:28.489Z,18.18
2023-04-22T13:07:31.127Z,18.16
2023-04-22T13:08:33.913Z,18.16
2023-04-22T13:09:36.797Z,18.15
2023-04-22T13:10:39.837Z,18.16
2023-04-22T13:11:42.242Z,18.14
2023-04-22T13:12:45.101Z,18.14
2023-04-22T13:13:47.510Z,18.12
2023-04-22T13:14:49.910Z,18.12
2023-04-22T13:15:52.791Z,18.11
2023-04-22T13:16:55.267Z,18.11
2023-04-22T13:17:57.653Z,18.10
2023-04-22T13:19:00.316Z,18.09
2023-04-22T13:20:03.869Z,18.07
2023-04-22T13:21:06.646Z,18.07
2023-04-22T13:22:12.418Z,18.06
2023-04-22T13:23:14.884Z,18.05
2023-04-22T13:24:17.385Z,18.04
2023-04-22T13:25:20.014Z,18.03
2023-04-22T13:26:23.229Z,18.02
2023-04-22T13:27:26.678Z,18.01
2023-04-22T13:28:29.114Z,18.01
2023-04-22T13:29:31.872Z,18.01
2023-04-22T13:30:34.388Z,18.00
2023-04-22T13:31:40.098Z,18.00
2023-04-22T13:33:55.735Z,18.09
2023-04-22T13:34:58.201Z,17.94
2023-04-22T13:36:00.615Z,17.94
2023-04-22T13:37:06.325Z,17.93
2023-04-22T13:38:09.918Z,17.94
2023-04-22T13:39:12.385Z,17.93
2023-04-22T13:40:15.410Z,17.93
2023-04-22T13:41:19.534Z,17.94
2023-04-22T13:42:21.858Z,17.93
2023-04-22T13:43:24.202Z,17.94
2023-04-22T13:44:27.099Z,17.94
2023-04-22T13:45:30.118Z,17.93
2023-04-22T13:46:32.711Z,17.92
2023-04-22T13:49:23.513Z,18.04
2023-04-22T13:50:32.110Z,17.88
2023-04-22T13:59:08.037Z,17.89
2023-04-22T14:04:22.704Z,17.85
2023-04-22T14:07:58.556Z,17.80
2023-04-22T14:16:52.187Z,17.76
2023-04-22T14:31:19.253Z,17.80
2023-04-22T14:32:21.500Z,17.61
2023-04-22T14:33:24.393Z,17.60
2023-04-22T14:34:26.912Z,17.59
2023-04-22T14:35:29.485Z,17.57
2023-04-22T14:36:31.948Z,17.55
2023-04-22T14:37:35.837Z,17.54
2023-04-22T14:38:38.178Z,17.53
2023-04-22T14:39:40.992Z,17.50
2023-04-22T14:40:45.449Z,17.47
2023-04-22T14:41:57.305Z,17.47
2023-04-22T14:43:01.045Z,17.46
2023-04-22T14:44:03.426Z,17.46
2023-04-22T14:45:07.727Z,17.44
2023-04-22T14:46:22.227Z,17.44
2023-04-22T14:48:23.177Z,17.44
2023-04-22T14:51:49.165Z,17.48
2023-04-22T14:52:52.279Z,17.52
2023-04-22T14:53:56.019Z,17.51
2023-04-22T14:55:00.220Z,17.52
2023-04-22T14:56:04.236Z,17.54
2023-04-22T14:57:08.877Z,17.54
2023-04-22T14:58:12.676Z,17.53
2023-04-22T14:59:15.002Z,17.53
2023-04-22T15:00:20.760Z,17.54
2023-04-22T15:01:23.200Z,17.53
2023-04-22T15:02:25.867Z,17.55
2023-04-22T15:03:31.465Z,17.55
2023-04-22T15:04:38.575Z,17.56
2023-04-22T15:05:42.191Z,17.58
2023-04-22T15:06:44.703Z,17.59
2023-04-22T15:07:47.105Z,17.60
2023-04-22T15:08:49.603Z,17.60
2023-04-22T15:09:52.608Z,17.60
2023-04-22T15:12:31.710Z,17.74
2023-04-22T15:17:01.846Z,17.58
2023-04-22T15:18:04.361Z,17.61
2023-04-22T15:19:06.728Z,17.62
2023-04-22T15:20:10.354Z,17.62
2023-04-22T15:21:13.360Z,17.61
2023-04-22T15:23:42.589Z,17.75
2023-04-22T15:24:47.016Z,17.62
2023-04-22T15:25:49.391Z,17.64
2023-04-22T15:26:52.873Z,17.66
2023-04-22T15:27:55.715Z,17.67
2023-04-22T15:28:58.594Z,17.68
2023-04-22T15:30:01.883Z,17.68
2023-04-22T15:32:20.542Z,17.82
2023-04-22T15:33:23.950Z,17.66
2023-04-22T15:34:26.386Z,17.66
2023-04-22T15:35:28.573Z,17.67
2023-04-22T15:36:31.040Z,17.67
2023-04-22T15:37:33.650Z,17.67
2023-04-22T15:38:36.002Z,17.66
2023-04-22T15:39:38.224Z,17.66